createdAt,value
2022-10-31T00:01:37.495Z,21.70
2022-10-31T00:04:24.485Z,27.70
2022-10-31T00:07:11.126Z,20.30
2022-10-31T00:09:57.780Z,30.80
2022-10-31T00:12:44.583Z,23.10
2022-10-31T00:15:31.641Z,23.40
2022-10-31T00:18:18.241Z,19.70
2022-10-31T00:21:05.228Z,14.90
2022-10-31T00:23:52.417Z,23.10
2022-10-31T00:26:39.286Z,17.60
2022-10-31T00:29:25.945Z,21.80
2022-10-31T00:32:12.834Z,16.20
2022-10-31T00:34:59.851Z,23.60
2022-10-31T00:37:46.941Z,18.20
2022-10-31T00:40:33.807Z,18.60
2022-10-31T00:43:20.666Z,20.20
2022-10-31T00:46:07.704Z,17.20
2022-10-31T00:48:54.779Z,18.90
2022-10-31T00:51:41.860Z,17.50
2022-10-31T00:54:28.879Z,18.60
2022-10-31T00:57:15.578Z,27.00
2022-10-31T01:00:06.426Z,17.30
2022-10-31T01:02:57.643Z,17.90
2022-10-31T01:05:44.844Z,18.10
2022-10-31T01:08:31.646Z,18.10
2022-10-31T01:11:21.811Z,27.40
2022-10-31T01:14:09.850Z,20.70
2022-10-31T01:16:56.704Z,26.70
2022-10-31T01:19:43.373Z,21.00
2022-10-31T01:22:30.237Z,17.20
2022-10-31T01:25:19.517Z,25.20
2022-10-31T01:28:08.046Z,18.10
2022-10-31T01:30:54.760Z,28.00
2022-10-31T01:33:41.932Z,22.60
2022-10-31T01:36:32.115Z,16.90
2022-10-31T01:42:07.993Z,24.00
2022-10-31T01:44:58.913Z,19.50
2022-10-31T01:47:48.318Z,18.60
2022-10-31T01:50:39.937Z,25.70
2022-10-31T01:53:27.227Z,19.90
2022-10-31T01:56:17.397Z,19.80
2022-10-31T01:59:08.177Z,20.80
2022-10-31T02:05:05.717Z,14.10
2022-10-31T02:08:17.091Z,21.00
2022-10-31T02:11:04.135Z,14.70
2022-10-31T02:13:51.057Z,20.00
2022-10-31T02:16:38.018Z,19.50
2022-10-31T02:19:39.826Z,20.40
2022-10-31T02:26:02.992Z,16.80
2022-10-31T02:29:05.241Z,28.10
2022-10-31T02:32:01.651Z,27.10
2022-10-31T02:35:07.385Z,13.90
2022-10-31T02:38:25.054Z,25.60
2022-10-31T02:41:25.753Z,24.90
2022-10-31T02:44:27.365Z,32.30
2022-10-31T02:47:19.923Z,27.00
2022-10-31T02:50:19.436Z,24.80
2022-10-31T02:53:07.769Z,22.60
2022-10-31T02:56:05.484Z,22.20
2022-10-31T02:59:03.713Z,19.10
2022-10-31T03:02:08.193Z,14.70
2022-10-31T03:05:34.668Z,14.20
2022-10-31T03:08:47.118Z,18.30
2022-10-31T03:14:34.704Z,20.90
2022-10-31T03:17:39.524Z,20.60
2022-10-31T03:20:34.898Z,21.50
2022-10-31T03:23:24.258Z,21.00
2022-10-31T03:26:14.138Z,17.80
2022-10-31T03:29:07.533Z,14.00
2022-10-31T03:32:02.885Z,19.30
2022-10-31T03:34:52.801Z,22.10
2022-10-31T03:37:41.690Z,21.80
2022-10-31T03:40:32.561Z,12.10
2022-10-31T03:43:29.697Z,24.60
2022-10-31T03:46:17.186Z,22.70
2022-10-31T03:49:04.829Z,28.00
2022-10-31T03:52:03.596Z,17.80
2022-10-31T03:54:57.770Z,20.70
2022-10-31T03:57:54.227Z,29.40
2022-10-31T04:00:45.361Z,27.20
2022-10-31T04:03:37.380Z,29.70
2022-10-31T04:06:26.767Z,21.30
2022-10-31T04:09:15.598Z,23.50
2022-10-31T04:12:09.565Z,17.70
2022-10-31T04:14:57.602Z,17.20
2022-10-31T04:17:48.454Z,16.90
2022-10-31T04:23:27.198Z,19.50
2022-10-31T04:26:14.593Z,19.60
2022-10-31T04:29:04.225Z,31.30
2022-10-31T04:31:51.311Z,23.80
2022-10-31T04:34:38.226Z,16.70
2022-10-31T04:37:25.284Z,26.40
2022-10-31T04:40:12.134Z,19.00
2022-10-31T04:43:17.672Z,14.20
2022-10-31T04:46:05.573Z,18.80
2022-10-31T04:48:52.417Z,18.10
2022-10-31T04:51:39.070Z,19.80
2022-10-31T04:54:26.256Z,15.80
2022-10-31T04:57:31.843Z,13.50
2022-10-31T05:00:23.421Z,15.80
2022-10-31T05:03:10.602Z,13.60
2022-10-31T05:05:57.808Z,10.10
2022-10-31T05:08:44.765Z,13.00
2022-10-31T05:11:31.999Z,14.40
2022-10-31T05:14:28.596Z,18.00
2022-10-31T05:17:34.128Z,18.50
2022-10-31T05:20:44.038Z,19.60
2022-10-31T05:23:48.655Z,18.20
2022-10-31T05:26:37.691Z,12.10
2022-10-31T05:29:24.378Z,18.30
2022-10-31T05:32:12.048Z,17.80
2022-10-31T05:35:20.595Z,22.30
2022-10-31T05:38:33.597Z,20.00
2022-10-31T05:41:28.950Z,22.00
2022-10-31T05:44:24.287Z,15.90
2022-10-31T05:47:41.224Z,16.20
2022-10-31T05:50:53.745Z,12.10
2022-10-31T05:53:40.895Z,12.90
2022-10-31T05:56:27.546Z,20.50
2022-10-31T05:59:15.680Z,20.40
2022-10-31T06:02:02.538Z,15.30
2022-10-31T06:05:08.822Z,21.00
2022-10-31T06:07:56.999Z,17.60
2022-10-31T06:10:45.124Z,19.40
2022-10-31T06:13:32.183Z,21.50
2022-10-31T06:16:24.647Z,16.80
2022-10-31T06:19:11.840Z,20.10
2022-10-31T06:21:58.611Z,24.80
2022-10-31T06:24:45.296Z,32.90
2022-10-31T06:27:45.898Z,30.00
2022-10-31T06:30:34.179Z,35.90
2022-10-31T06:33:22.017Z,36.00
2022-10-31T06:36:15.806Z,32.00
2022-10-31T06:39:02.923Z,26.20
2022-10-31T06:41:50.532Z,36.70
2022-10-31T06:44:39.867Z,27.90
2022-10-31T06:48:15.429Z,20.60
2022-10-31T06:51:04.162Z,18.20
2022-10-31T06:53:51.947Z,17.30
2022-10-31T06:56:38.627Z,14.20
2022-10-31T06:59:28.818Z,28.80
2022-10-31T07:02:34.451Z,17.40
2022-10-31T07:05:22.437Z,17.70
2022-10-31T07:08:11.963Z,20.40
2022-10-31T07:10:59.496Z,18.20
2022-10-31T07:13:47.605Z,22.60
2022-10-31T07:16:35.873Z,44.20
2022-10-31T07:19:22.962Z,20.70
2022-10-31T07:22:09.723Z,19.50
2022-10-31T07:24:57.399Z,17.80
2022-10-31T07:28:05.050Z,18.70
2022-10-31T07:30:54.655Z,18.60
2022-10-31T07:33:41.766Z,16.00
2022-10-31T07:36:46.701Z,20.40
2022-10-31T07:39:33.819Z,21.70
2022-10-31T07:42:20.830Z,37.90
2022-10-31T07:45:10.399Z,18.80
2022-10-31T07:48:25.645Z,27.90
2022-10-31T07:51:30.962Z,27.20
2022-10-31T07:54:46.956Z,31.00
2022-10-31T07:57:41.762Z,27.50
2022-10-31T08:00:29.646Z,27.20
2022-10-31T08:03:18.845Z,33.80
2022-10-31T08:06:38.004Z,29.10
2022-10-31T08:09:31.553Z,23.50
2022-10-31T08:12:22.259Z,24.70
2022-10-31T08:15:09.433Z,30.70
2022-10-31T08:17:56.974Z,26.40
2022-10-31T08:20:44.676Z,29.00
2022-10-31T08:23:31.565Z,25.80
2022-10-31T08:26:18.594Z,22.90
2022-10-31T08:29:05.712Z,25.60
2022-10-31T08:31:53.971Z,24.80
2022-10-31T08:34:59.935Z,22.70
2022-10-31T08:38:05.782Z,24.50
2022-10-31T08:40:52.171Z,29.90
2022-10-31T08:43:38.758Z,22.50
2022-10-31T08:46:25.737Z,20.70
2022-10-31T08:49:16.025Z,25.30
2022-10-31T08:52:03.672Z,22.50
2022-10-31T08:54:54.117Z,19.20
2022-10-31T08:58:00.177Z,22.80
2022-10-31T09:00:57.427Z,17.60
2022-10-31T09:03:45.961Z,18.00
2022-10-31T09:06:33.310Z,19.40
2022-10-31T09:09:20.392Z,17.10
2022-10-31T09:12:07.466Z,17.70
2022-10-31T09:15:10.142Z,17.40
2022-10-31T09:18:22.078Z,22.20
2022-10-31T09:21:19.232Z,20.20
2022-10-31T09:24:06.613Z,25.40
2022-10-31T09:26:53.382Z,21.30
2022-10-31T09:29:47.298Z,22.60
2022-10-31T09:32:34.490Z,16.80
2022-10-31T09:35:24.734Z,20.10
2022-10-31T09:38:24.580Z,14.90
2022-10-31T09:41:39.378Z,17.30
2022-10-31T09:44:39.077Z,20.00
2022-10-31T09:47:46.932Z,21.30
2022-10-31T09:51:00.301Z,17.40
2022-10-31T09:54:26.557Z,20.90
2022-10-31T09:57:16.739Z,18.60
2022-10-31T10:00:07.549Z,16.80
2022-10-31T10:03:28.220Z,16.10
2022-10-31T10:06:20.561Z,15.60
2022-10-31T10:09:28.100Z,18.10
2022-10-31T10:13:10.098Z,19.30
2022-10-31T10:16:16.139Z,22.50
2022-10-31T10:19:30.723Z,18.90
2022-10-31T10:22:27.360Z,15.90
2022-10-31T10:25:26.980Z,17.80
2022-10-31T10:28:39.524Z,14.10
2022-10-31T10:31:33.753Z,18.40
2022-10-31T10:34:27.336Z,17.20
2022-10-31T10:37:36.293Z,12.20
2022-10-31T10:40:26.198Z,13.70
2022-10-31T10:43:24.904Z,13.40
2022-10-31T10:46:54.159Z,19.50
2022-10-31T10:49:52.094Z,11.50
2022-10-31T10:53:00.822Z,8.00
2022-10-31T10:56:13.693Z,9.90
2022-10-31T10:59:00.479Z,12.90
2022-10-31T11:01:49.864Z,10.20
2022-10-31T11:04:37.566Z,15.00
2022-10-31T11:07:24.901Z,10.10
2022-10-31T11:10:16.558Z,10.40
2022-10-31T11:13:06.432Z,13.60
2022-10-31T11:15:58.356Z,12.70
2022-10-31T11:18:48.309Z,10.90
2022-10-31T11:21:35.921Z,12.90
2022-10-31T11:24:27.310Z,10.00
2022-10-31T11:30:08.346Z,10.40
2022-10-31T11:32:55.209Z,16.20
2022-10-31T11:35:42.118Z,13.20
2022-10-31T11:38:41.934Z,10.00
2022-10-31T11:41:39.473Z,12.60
2022-10-31T11:44:31.585Z,10.60
2022-10-31T11:47:21.267Z,10.00
2022-10-31T11:50:19.196Z,8.20
2022-10-31T11:53:16.315Z,20.80
2022-10-31T11:56:11.487Z,9.20
2022-10-31T11:59:05.773Z,14.90
2022-10-31T12:01:54.634Z,10.20
2022-10-31T12:04:47.600Z,15.90
2022-10-31T12:07:34.595Z,10.10
2022-10-31T12:10:31.893Z,17.70
2022-10-31T12:13:34.526Z,8.50
2022-10-31T12:16:32.107Z,12.30
2022-10-31T12:20:01.853Z,13.40
2022-10-31T12:23:07.549Z,8.70
2022-10-31T12:26:29.769Z,13.20
2022-10-31T12:29:31.470Z,10.20
2022-10-31T12:32:31.798Z,8.10
2022-10-31T12:35:37.443Z,10.00
2022-10-31T12:38:59.366Z,17.60
2022-10-31T12:41:51.062Z,13.10
2022-10-31T12:44:40.575Z,11.30
2022-10-31T12:47:57.298Z,16.80
2022-10-31T12:51:16.541Z,13.30
2022-10-31T12:54:15.801Z,12.60
2022-10-31T12:57:22.694Z,11.00
2022-10-31T13:00:19.203Z,19.40
2022-10-31T13:03:21.727Z,11.90
2022-10-31T13:06:14.064Z,11.60
2022-10-31T13:09:06.243Z,10.50
2022-10-31T13:12:03.326Z,14.50
2022-10-31T13:14:58.228Z,9.40
2022-10-31T13:17:50.109Z,10.70
2022-10-31T13:20:45.201Z,13.30
2022-10-31T13:23:51.989Z,14.70
2022-10-31T13:26:48.417Z,10.70
2022-10-31T13:29:43.706Z,14.20
2022-10-31T13:32:45.981Z,18.40
2022-10-31T13:35:51.251Z,16.10
2022-10-31T13:38:51.498Z,14.80
2022-10-31T13:42:03.677Z,8.60
2022-10-31T13:44:50.508Z,11.50
2022-10-31T13:47:37.318Z,11.70
2022-10-31T13:50:30.393Z,13.90
2022-10-31T13:53:23.225Z,11.30
2022-10-31T13:56:17.761Z,7.50
2022-10-31T13:59:18.316Z,19.00
2022-10-31T14:02:16.520Z,16.40
2022-10-31T14:05:06.882Z,7.50
2022-10-31T14:07:57.528Z,13.50
2022-10-31T14:10:51.046Z,9.70
2022-10-31T14:13:43.857Z,14.60
2022-10-31T14:16:32.643Z,9.30
2022-10-31T14:19:21.970Z,9.10
2022-10-31T14:22:22.520Z,10.70
2022-10-31T14:25:33.494Z,14.10
2022-10-31T14:28:34.049Z,26.30
2022-10-31T14:31:30.302Z,14.70
2022-10-31T14:34:27.526Z,14.50
2022-10-31T14:37:29.509Z,9.60
2022-10-31T14:40:34.957Z,11.10
2022-10-31T14:43:30.650Z,11.40
2022-10-31T14:46:38.925Z,6.50
2022-10-31T14:49:28.728Z,10.40
2022-10-31T14:52:19.597Z,15.10
2022-10-31T14:55:12.119Z,11.20
2022-10-31T14:58:02.909Z,10.10
2022-10-31T15:00:55.255Z,11.70
2022-10-31T15:04:10.251Z,12.70
2022-10-31T15:07:03.437Z,14.10
2022-10-31T15:10:01.824Z,14.90
2022-10-31T15:12:48.458Z,18.90
2022-10-31T15:15:35.637Z,16.90
2022-10-31T15:18:25.978Z,12.30
2022-10-31T15:21:17.217Z,22.40
2022-10-31T15:24:04.277Z,18.00
2022-10-31T15:26:54.244Z,22.70
2022-10-31T15:29:55.854Z,26.10
2022-10-31T15:32:57.288Z,29.20
2022-10-31T15:38:41.932Z,14.70
2022-10-31T15:41:53.954Z,21.40
2022-10-31T15:44:44.624Z,16.80
2022-10-31T15:47:33.603Z,24.40
2022-10-31T15:50:29.583Z,11.40
2022-10-31T15:53:23.613Z,10.40
2022-10-31T15:56:14.267Z,8.20
2022-10-31T15:59:02.878Z,13.00
2022-10-31T16:02:04.409Z,12.40
2022-10-31T16:05:00.256Z,15.50
2022-10-31T16:07:51.417Z,7.50
2022-10-31T16:10:38.236Z,13.50
2022-10-31T16:13:29.008Z,9.60
2022-10-31T16:16:35.637Z,11.60
2022-10-31T16:19:29.068Z,8.50
2022-10-31T16:22:28.012Z,7.80
2022-10-31T16:25:43.726Z,15.20
2022-10-31T16:28:33.076Z,7.70
2022-10-31T16:31:38.675Z,20.50
2022-10-31T16:34:27.125Z,8.70
2022-10-31T16:37:14.024Z,12.20
2022-10-31T16:40:00.800Z,10.20
2022-10-31T16:42:50.882Z,9.90
2022-10-31T16:45:37.934Z,11.00
2022-10-31T16:48:24.509Z,13.40
2022-10-31T16:51:16.093Z,22.60
2022-10-31T16:54:02.975Z,11.50
2022-10-31T16:56:49.992Z,15.00
2022-10-31T16:59:37.068Z,13.20
2022-10-31T17:02:24.727Z,15.20
2022-10-31T17:05:17.663Z,18.30
2022-10-31T17:08:04.889Z,14.00
2022-10-31T17:10:53.182Z,17.20
2022-10-31T17:13:40.106Z,19.00
2022-10-31T17:16:27.279Z,25.20
2022-10-31T17:19:15.042Z,17.80
2022-10-31T17:22:03.002Z,15.30
2022-10-31T17:24:50.046Z,17.30
2022-10-31T17:27:36.824Z,17.20
2022-10-31T17:30:24.256Z,16.90
2022-10-31T17:33:13.454Z,14.60
2022-10-31T17:36:03.601Z,23.60
2022-10-31T17:38:50.573Z,17.50
2022-10-31T17:41:37.596Z,26.30
2022-10-31T17:44:24.418Z,16.10
2022-10-31T17:47:12.068Z,21.50
2022-10-31T17:49:58.786Z,26.70
2022-10-31T17:52:47.852Z,21.90
2022-10-31T17:55:38.708Z,29.00
2022-10-31T17:58:25.614Z,24.40
2022-10-31T18:01:15.714Z,29.40
2022-10-31T18:04:02.687Z,33.30
2022-10-31T18:06:52.183Z,31.20
2022-10-31T18:09:38.894Z,32.20
2022-10-31T18:12:25.869Z,31.20
2022-10-31T18:15:13.210Z,30.60
2022-10-31T18:18:00.730Z,30.80
2022-10-31T18:20:48.725Z,50.00
2022-10-31T18:23:35.729Z,38.00
2022-10-31T18:26:23.750Z,34.10
2022-10-31T18:29:12.023Z,36.10
2022-10-31T18:31:58.870Z,38.40
2022-10-31T18:34:45.490Z,38.20
2022-10-31T18:37:32.112Z,44.50
2022-10-31T18:40:18.680Z,57.60
2022-10-31T18:43:06.184Z,54.40
2022-10-31T18:45:56.909Z,62.70
2022-10-31T18:48:45.326Z,61.70
2022-10-31T18:51:32.053Z,59.50
2022-10-31T18:54:19.111Z,71.30
2022-10-31T18:57:06.136Z,69.40
2022-10-31T18:59:52.839Z,63.30
2022-10-31T19:02:39.758Z,79.00
2022-10-31T19:05:26.878Z,75.50
2022-10-31T19:08:13.745Z,87.60
2022-10-31T19:11:11.960Z,83.80
2022-10-31T19:13:58.586Z,66.60
2022-10-31T19:16:45.350Z,60.50
2022-10-31T19:19:32.131Z,99.90
2022-10-31T19:22:19.028Z,95.20
2022-10-31T19:25:10.615Z,63.10
2022-10-31T19:28:00.799Z,80.40
2022-10-31T19:30:55.158Z,72.00
2022-10-31T19:33:41.938Z,87.50
2022-10-31T19:36:29.738Z,78.10
2022-10-31T19:39:16.832Z,72.30
2022-10-31T19:42:04.029Z,87.80
2022-10-31T19:44:50.955Z,87.30
2022-10-31T19:47:37.611Z,81.40
2022-10-31T19:50:24.191Z,76.70
2022-10-31T19:53:11.664Z,66.90
2022-10-31T19:55:59.771Z,45.20
2022-10-31T19:58:46.432Z,65.00
2022-10-31T20:01:33.362Z,69.40
2022-10-31T20:04:20.255Z,50.30
2022-10-31T20:07:07.084Z,77.90
2022-10-31T20:09:53.867Z,72.50
2022-10-31T20:12:40.653Z,87.60
2022-10-31T20:15:27.473Z,74.90
2022-10-31T20:18:14.539Z,77.70
2022-10-31T20:21:04.989Z,67.80
2022-10-31T20:24:03.514Z,69.60
2022-10-31T20:26:50.404Z,84.20
2022-10-31T20:29:36.968Z,72.20
2022-10-31T20:32:24.003Z,86.10
2022-10-31T20:35:11.022Z,88.60
2022-10-31T20:37:58.187Z,80.60
2022-10-31T20:40:45.301Z,81.70
2022-10-31T20:43:33.582Z,81.80
2022-10-31T20:46:26.224Z,62.00
2022-10-31T20:49:13.978Z,75.40
2022-10-31T20:52:00.911Z,72.80
2022-10-31T20:54:48.373Z,73.30
2022-10-31T20:57:35.235Z,48.50
2022-10-31T21:00:22.125Z,73.80
2022-10-31T21:03:09.028Z,76.90
2022-10-31T21:06:00.194Z,83.60
2022-10-31T21:08:47.569Z,69.50
2022-10-31T21:11:34.554Z,71.20
2022-10-31T21:14:21.669Z,62.60
2022-10-31T21:17:08.829Z,70.20
2022-10-31T21:19:55.902Z,79.70
2022-10-31T21:22:42.544Z,69.20
2022-10-31T21:25:29.422Z,63.60
2022-10-31T21:28:16.356Z,65.90
2022-10-31T21:31:08.249Z,66.10
2022-10-31T21:33:56.046Z,63.20
2022-10-31T21:36:42.960Z,43.80
2022-10-31T21:39:29.649Z,55.10
2022-10-31T21:42:20.461Z,67.20
2022-10-31T21:45:08.582Z,65.30
2022-10-31T21:47:55.664Z,59.90
2022-10-31T21:50:42.311Z,53.60
2022-10-31T21:53:48.361Z,71.60
2022-10-31T21:56:35.929Z,65.70
2022-10-31T21:59:22.843Z,68.60
2022-10-31T22:02:09.709Z,63.40
2022-10-31T22:04:56.526Z,56.10
2022-10-31T22:07:43.550Z,68.50
2022-10-31T22:10:30.234Z,58.90
2022-10-31T22:13:17.108Z,54.60
2022-10-31T22:16:10.460Z,68.40
2022-10-31T22:18:59.425Z,69.30
2022-10-31T22:21:49.139Z,61.30
2022-10-31T22:24:36.381Z,58.60
2022-10-31T22:27:23.137Z,50.30
2022-10-31T22:30:10.860Z,56.70
2022-10-31T22:32:57.760Z,63.30
2022-10-31T22:35:44.527Z,60.60
2022-10-31T22:38:40.444Z,52.50
2022-10-31T22:41:30.402Z,70.00
2022-10-31T22:44:17.565Z,53.10
2022-10-31T22:47:04.623Z,70.70
2022-10-31T22:49:51.323Z,69.40
2022-10-31T22:52:38.314Z,59.80
2022-10-31T22:55:28.789Z,63.80
2022-10-31T22:58:15.823Z,50.90
2022-10-31T23:01:30.349Z,65.60
2022-10-31T23:04:17.688Z,56.20
2022-10-31T23:07:04.391Z,51.30
2022-10-31T23:09:51.792Z,50.40
2022-10-31T23:12:57.659Z,46.00
2022-10-31T23:15:44.943Z,59.50
2022-10-31T23:18:49.047Z,62.20
2022-10-31T23:21:59.818Z,66.60
2022-10-31T23:24:47.725Z,64.30
2022-10-31T23:27:34.391Z,50.00
2022-10-31T23:30:21.049Z,49.30
2022-10-31T23:33:08.246Z,47.90
2022-10-31T23:35:54.741Z,53.30
2022-10-31T23:38:42.637Z,57.50
2022-10-31T23:41:29.372Z,55.90
2022-10-31T23:44:16.135Z,67.30
2022-10-31T23:47:03.194Z,56.90
2022-10-31T23:49:50.921Z,55.50
2022-10-31T23:52:37.618Z,54.00
2022-10-31T23:55:25.355Z,57.30
2022-10-31T23:58:11.982Z,50.50
